Camp Pendleton MCAS (Munn Field) Airport
KNFG : rendu visible

Aérodrome :











RETROUVEZ-NOUS SUR...

 
LOGIN :

S'inscrire | Disclaimer

   EN    FR    IT 

 









Légende :    VFR   VFR Marginal   IFR   IFR Intensif   IFR Très Intensif
Visi : 
Plafond : 
>= 8 km
>= 3000ft
5 à 8 km
1000 à 3000 ft
1500m à 5 km
500 à 1000 ft
800 à 1500m
200 à 500 ft
< 800m
< 200 ft
Symboles :   Orages  Brouillard  Fortes neiges  Fortes précipitations  Vent > 20 kt






- Altitude de l'aérodrome : 78 ft


KNFG - Camp Pendleton MCAS (Munn Field)

DERNIER METAR :
  • 231555Z 04004KT 10SM OVC019 13/07 A2993 RMK AO2 SLP134 T01280072 $

METARs EXPIRÉS :
  • 231455Z AUTO 07003KT 9SM FEW005 OVC018 11/07 A2991 RMK AO2 SLP129 T01060072 51014 $
  • 231442Z AUTO 00000KT 7SM SCT005 OVC018 11/07 A2991 RMK AO2 T01060067 $
  • 231412Z AUTO 04008KT 3SM HZ OVC002 10/07 A2990 RMK AO2 T01000067 $
  • 231407Z AUTO 06007KT 1 1/2SM HZ BKN002 OVC018 10/07 A2990 RMK AO2 T01000067 $
  • 231355Z AUTO 04005KT 1/2SM HZ VV002 11/07 A2990 RMK AO2 SLP124 T01110072 $

TAF TAF KNFG
Valide du 23 à 15h jusqu'au 24 à 15h UTC


2315/2415 VRB05KT 9999 FEW003 OVC018 QNH2987INS
BECMG 2319/2320 21008KT 9999 FEW200 QNH2984INS
FM240230 VRB05KT 9999 BKN012 QNH2986INS T19/2321Z T10/2412Z
FIR KZLA / Amérique du Nord



MET'MAP, la Météo Aéronautique d'un coup d'oeil ! - Copyright ORBIFLY Décembre 2007 - Disclaimer

ORBIFLY MET'MAP TEAM :

Programmation & Développement : Alexandra Zaïnal
Sur une idée originale de : Baudouin d'Aumeries
Assistance à la programmation : Marc-Olivier Méhu
Soutien technique & logistique : Manuel Goepfert

Contact : metmap@orbifly.com




SOURCES & CREDITS :

   NOAA       Earth
Advisory